createdAt,value
2022-11-15T00:03:00.235Z,24.60
2022-11-15T00:05:47.392Z,20.80
2022-11-15T00:08:34.757Z,23.30
2022-11-15T00:11:21.468Z,20.90
2022-11-15T00:14:08.396Z,22.00
2022-11-15T00:16:55.296Z,25.20
2022-11-15T00:19:42.098Z,25.70
2022-11-15T00:22:35.278Z,25.90
2022-11-15T00:25:22.233Z,23.20
2022-11-15T00:28:09.228Z,25.20
2022-11-15T00:31:09.073Z,25.00
2022-11-15T00:33:56.023Z,23.80
2022-11-15T00:36:42.951Z,23.90
2022-11-15T00:39:29.965Z,22.30
2022-11-15T00:42:18.108Z,25.90
2022-11-15T00:45:06.121Z,24.60
2022-11-15T00:47:53.449Z,23.70
2022-11-15T00:50:40.894Z,23.30
2022-11-15T00:53:28.110Z,23.60
2022-11-15T00:56:15.232Z,26.90
2022-11-15T00:59:02.127Z,27.90
2022-11-15T01:01:49.672Z,21.80
2022-11-15T01:04:36.565Z,25.20
2022-11-15T01:07:23.614Z,23.90
2022-11-15T01:10:10.620Z,25.50
2022-11-15T01:12:57.618Z,21.20
2022-11-15T01:15:44.828Z,25.00
2022-11-15T01:18:31.863Z,24.60
2022-11-15T01:21:20.355Z,24.70
2022-11-15T01:24:09.052Z,25.80
2022-11-15T01:26:55.880Z,24.90
2022-11-15T01:29:43.039Z,24.80
2022-11-15T01:32:30.125Z,23.10
2022-11-15T01:35:17.009Z,24.30
2022-11-15T01:38:03.839Z,24.30
2022-11-15T01:40:51.046Z,24.00
2022-11-15T01:43:38.382Z,23.00
2022-11-15T01:46:37.062Z,24.40
2022-11-15T01:49:25.451Z,24.20
2022-11-15T01:52:18.579Z,22.90
2022-11-15T01:55:09.973Z,25.00
2022-11-15T01:58:03.108Z,25.90
2022-11-15T02:00:51.450Z,25.10
2022-11-15T02:03:57.856Z,24.40
2022-11-15T02:06:48.105Z,23.30
2022-11-15T02:09:38.658Z,22.90
2022-11-15T02:12:25.656Z,22.10
2022-11-15T02:15:13.192Z,26.50
2022-11-15T02:18:06.039Z,24.20
2022-11-15T02:21:38.313Z,24.60
2022-11-15T02:24:40.705Z,23.60
2022-11-15T02:28:12.066Z,25.00
2022-11-15T02:31:11.263Z,23.70
2022-11-15T02:34:17.834Z,25.60
2022-11-15T02:37:26.439Z,23.70
2022-11-15T02:40:44.703Z,23.00
2022-11-15T02:44:06.213Z,24.20
2022-11-15T02:47:14.441Z,26.90
2022-11-15T02:50:09.421Z,23.10
2022-11-15T02:52:57.052Z,24.20
2022-11-15T02:55:49.691Z,24.90
2022-11-15T02:58:52.791Z,21.90
2022-11-15T03:01:46.687Z,23.00
2022-11-15T03:04:51.827Z,25.00
2022-11-15T03:07:56.882Z,24.00
2022-11-15T03:11:11.718Z,23.80
2022-11-15T03:14:26.993Z,24.60
2022-11-15T03:17:18.092Z,24.50
2022-11-15T03:20:09.057Z,22.60
2022-11-15T03:23:04.828Z,25.70
2022-11-15T03:25:54.811Z,24.00
2022-11-15T03:29:04.775Z,24.30
2022-11-15T03:32:00.900Z,25.20
2022-11-15T03:35:13.004Z,24.80
2022-11-15T03:38:25.758Z,22.30
2022-11-15T03:41:48.489Z,23.30
2022-11-15T03:44:55.659Z,23.90
2022-11-15T03:47:54.089Z,26.20
2022-11-15T03:50:44.049Z,25.20
2022-11-15T03:53:32.837Z,23.90
2022-11-15T03:56:19.919Z,23.60
2022-11-15T03:59:07.021Z,22.30
2022-11-15T04:01:53.811Z,22.80
2022-11-15T04:04:41.335Z,25.40
2022-11-15T04:07:28.540Z,26.30
2022-11-15T04:10:17.042Z,23.80
2022-11-15T04:13:04.516Z,25.00
2022-11-15T04:15:51.280Z,24.40
2022-11-15T04:18:38.090Z,22.60
2022-11-15T04:21:43.640Z,21.60
2022-11-15T04:24:30.348Z,18.30
2022-11-15T04:27:17.363Z,21.80
2022-11-15T04:30:05.653Z,19.20
2022-11-15T04:32:52.724Z,19.50
2022-11-15T04:35:39.984Z,20.40
2022-11-15T04:38:27.474Z,18.50
2022-11-15T04:41:16.331Z,17.10
2022-11-15T04:44:03.347Z,18.80
2022-11-15T04:46:50.525Z,17.60
2022-11-15T04:49:37.376Z,18.10
2022-11-15T04:52:24.085Z,20.10
2022-11-15T04:55:12.022Z,18.80
2022-11-15T04:58:03.275Z,17.90
2022-11-15T05:00:50.187Z,16.00
2022-11-15T05:03:56.364Z,15.40
2022-11-15T05:06:43.005Z,17.70
2022-11-15T05:09:30.297Z,17.30
2022-11-15T05:12:16.896Z,17.00
2022-11-15T05:15:04.035Z,16.00
2022-11-15T05:17:50.935Z,18.00
2022-11-15T05:20:37.632Z,18.80
2022-11-15T05:23:24.327Z,17.00
2022-11-15T05:26:11.588Z,22.70
2022-11-15T05:29:00.025Z,16.90
2022-11-15T05:31:47.312Z,19.30
2022-11-15T05:34:34.384Z,17.70
2022-11-15T05:37:21.101Z,18.80
2022-11-15T05:40:09.782Z,17.60
2022-11-15T05:42:57.389Z,17.60
2022-11-15T05:45:44.086Z,15.30
2022-11-15T05:48:30.720Z,17.30
2022-11-15T05:51:18.930Z,16.80
2022-11-15T05:54:06.105Z,20.20
2022-11-15T05:56:53.674Z,19.10
2022-11-15T05:59:42.107Z,16.40
2022-11-15T06:02:28.735Z,16.80
2022-11-15T06:05:16.134Z,17.10
2022-11-15T06:10:11.556Z,18.90
2022-11-15T06:13:04.729Z,17.80
2022-11-15T06:15:51.429Z,15.30
2022-11-15T06:18:39.200Z,17.20
2022-11-15T06:21:28.959Z,16.90
2022-11-15T06:24:15.883Z,15.60
2022-11-15T06:27:02.461Z,16.50
2022-11-15T06:29:52.699Z,15.90
2022-11-15T06:32:39.651Z,14.70
2022-11-15T06:35:26.580Z,14.90
2022-11-15T06:38:13.316Z,15.40
2022-11-15T06:41:08.452Z,14.50
2022-11-15T06:43:55.132Z,14.20
2022-11-15T06:46:42.092Z,15.60
2022-11-15T06:49:29.000Z,14.70
2022-11-15T06:52:15.705Z,14.20
2022-11-15T06:55:02.782Z,13.10
2022-11-15T06:57:52.219Z,13.50
2022-11-15T07:03:25.899Z,16.20
2022-11-15T07:06:12.872Z,15.10
2022-11-15T07:08:59.928Z,14.80
2022-11-15T07:11:47.026Z,11.30
2022-11-15T07:14:34.231Z,11.90
2022-11-15T07:17:21.576Z,10.90
2022-11-15T07:20:09.424Z,11.30
2022-11-15T07:23:06.321Z,11.00
2022-11-15T07:25:53.228Z,11.60
2022-11-15T07:28:40.463Z,11.60
2022-11-15T07:31:28.622Z,11.40
2022-11-15T07:34:15.286Z,11.60
2022-11-15T07:37:01.988Z,11.20
2022-11-15T07:39:48.757Z,12.20
2022-11-15T07:42:53.748Z,13.80
2022-11-15T07:45:46.407Z,12.70
2022-11-15T07:48:43.309Z,12.10
2022-11-15T07:51:31.792Z,11.00
2022-11-15T07:54:21.614Z,10.20
2022-11-15T07:57:10.376Z,11.90
2022-11-15T07:59:57.614Z,9.60
2022-11-15T08:02:44.801Z,10.10
2022-11-15T08:05:32.184Z,9.80
2022-11-15T08:08:19.350Z,11.50
2022-11-15T08:11:06.165Z,9.50
2022-11-15T08:13:53.212Z,9.20
2022-11-15T08:16:42.916Z,10.80
2022-11-15T08:19:29.843Z,9.60
2022-11-15T08:22:17.141Z,8.50
2022-11-15T08:25:04.354Z,9.00
2022-11-15T08:27:54.741Z,9.50
2022-11-15T08:30:44.240Z,10.40
2022-11-15T08:33:34.952Z,9.70
2022-11-15T08:36:22.761Z,9.00
2022-11-15T08:39:13.799Z,7.90
2022-11-15T08:42:01.040Z,7.30
2022-11-15T08:44:47.826Z,8.40
2022-11-15T08:47:36.293Z,9.10
2022-11-15T08:50:25.565Z,10.20
2022-11-15T08:53:14.081Z,10.20
2022-11-15T08:56:01.262Z,9.80
2022-11-15T08:58:48.345Z,10.00
2022-11-15T09:01:35.217Z,9.30
2022-11-15T09:04:22.495Z,7.80
2022-11-15T09:07:14.457Z,7.90
2022-11-15T09:10:01.743Z,9.00
2022-11-15T09:12:49.715Z,9.10
2022-11-15T09:15:36.505Z,10.70
2022-11-15T09:18:23.912Z,10.70
2022-11-15T09:21:11.278Z,7.90
2022-11-15T09:23:59.090Z,9.20
2022-11-15T09:26:45.841Z,9.00
2022-11-15T09:29:32.447Z,10.10
2022-11-15T09:32:19.063Z,11.40
2022-11-15T09:35:06.169Z,8.40
2022-11-15T09:37:56.309Z,9.50
2022-11-15T09:40:44.121Z,9.00
2022-11-15T09:44:10.328Z,10.10
2022-11-15T09:47:58.445Z,8.30
2022-11-15T09:50:48.167Z,8.10
2022-11-15T09:54:30.349Z,7.00
2022-11-15T09:56:44.222Z,7.30
2022-11-15T09:59:45.331Z,9.00
2022-11-15T10:02:32.228Z,7.50
2022-11-15T10:05:01.956Z,8.10
2022-11-15T10:08:19.062Z,7.80
2022-11-15T10:11:09.781Z,7.30
2022-11-15T10:13:45.960Z,8.60
2022-11-15T10:16:29.188Z,8.40
2022-11-15T10:19:04.745Z,9.60
2022-11-15T10:21:49.918Z,8.30
2022-11-15T10:24:26.029Z,8.60
2022-11-15T10:26:55.823Z,8.00
2022-11-15T10:29:27.277Z,9.30
2022-11-15T10:31:55.878Z,9.80
2022-11-15T10:34:26.052Z,9.20
2022-11-15T10:37:05.211Z,7.10
2022-11-15T10:39:37.049Z,9.60
2022-11-15T10:42:18.296Z,8.40
2022-11-15T10:44:49.077Z,7.70
2022-11-15T10:47:37.753Z,9.10
2022-11-15T10:50:37.022Z,8.80
2022-11-15T10:53:13.868Z,9.70
2022-11-15T10:55:47.751Z,8.80
2022-11-15T10:58:42.458Z,11.40
2022-11-15T11:01:20.726Z,8.80
2022-11-15T11:04:10.287Z,10.30
2022-11-15T11:06:53.289Z,8.20
2022-11-15T11:09:37.880Z,10.00
2022-11-15T11:12:12.191Z,9.90
2022-11-15T11:14:40.829Z,9.20
2022-11-15T11:18:03.351Z,9.70
2022-11-15T11:20:43.148Z,10.50
2022-11-15T11:23:23.613Z,8.40
2022-11-15T11:26:25.849Z,9.00
2022-11-15T11:29:16.061Z,9.10
2022-11-15T11:31:48.750Z,8.70
2022-11-15T11:34:42.210Z,8.90
2022-11-15T11:37:47.256Z,9.40
2022-11-15T11:41:02.333Z,8.80
2022-11-15T11:43:50.815Z,7.40
2022-11-15T11:47:00.582Z,8.50
2022-11-15T11:49:40.805Z,8.20
2022-11-15T11:52:29.230Z,9.20
2022-11-15T11:55:17.795Z,10.20
2022-11-15T11:58:15.888Z,10.00
2022-11-15T12:01:09.923Z,8.40
2022-11-15T12:03:58.217Z,8.60
2022-11-15T12:06:50.227Z,8.20
2022-11-15T12:09:37.735Z,9.00
2022-11-15T12:12:20.670Z,8.80
2022-11-15T12:14:58.503Z,7.90
2022-11-15T12:17:34.347Z,9.50
2022-11-15T12:20:18.440Z,6.80
2022-11-15T12:23:18.266Z,8.30
2022-11-15T12:29:04.496Z,8.20
2022-11-15T12:31:36.472Z,8.30
2022-11-15T12:34:37.312Z,8.80
2022-11-15T12:37:38.875Z,10.00
2022-11-15T12:41:16.315Z,10.20
2022-11-15T12:43:46.864Z,9.20
2022-11-15T12:46:46.750Z,8.70
2022-11-15T12:49:24.291Z,10.00
2022-11-15T12:51:53.413Z,10.60
2022-11-15T12:54:24.258Z,11.00
2022-11-15T12:57:04.620Z,10.70
2022-11-15T12:59:59.702Z,12.80
2022-11-15T13:02:46.589Z,10.90
2022-11-15T13:05:14.881Z,12.90
2022-11-15T13:07:43.417Z,12.40
2022-11-15T13:10:11.766Z,13.50
2022-11-15T13:12:46.168Z,14.90
2022-11-15T13:15:15.725Z,14.60
2022-11-15T13:17:46.952Z,16.00
2022-11-15T13:20:18.171Z,15.40
2022-11-15T13:23:10.541Z,16.30
2022-11-15T13:26:07.084Z,15.40
2022-11-15T13:28:53.008Z,15.60
2022-11-15T13:31:26.700Z,19.60
2022-11-15T13:34:01.022Z,19.90
2022-11-15T13:36:36.926Z,18.60
2022-11-15T13:39:15.518Z,20.20
2022-11-15T13:41:51.201Z,19.40
2022-11-15T13:44:27.213Z,23.60
2022-11-15T13:47:16.313Z,21.40
2022-11-15T13:49:45.073Z,21.30
2022-11-15T13:52:17.632Z,20.90
2022-11-15T13:54:57.271Z,24.10
2022-11-15T13:57:30.122Z,24.70
2022-11-15T14:00:07.110Z,27.20
2022-11-15T14:02:41.487Z,25.00
2022-11-15T14:05:22.791Z,24.00
2022-11-15T14:08:21.321Z,28.50
2022-11-15T14:10:50.003Z,26.40
2022-11-15T14:13:32.792Z,25.60
2022-11-15T14:16:33.617Z,24.20
2022-11-15T14:19:02.384Z,27.90
2022-11-15T14:21:31.299Z,28.30
2022-11-15T14:24:20.899Z,28.20
2022-11-15T14:29:29.180Z,28.10
2022-11-15T14:32:18.184Z,31.90
2022-11-15T14:34:48.011Z,35.40
2022-11-15T14:37:34.753Z,28.00
2022-11-15T14:40:06.774Z,29.20
2022-11-15T14:42:35.145Z,31.00
2022-11-15T14:45:03.834Z,30.00
2022-11-15T14:47:32.237Z,30.30
2022-11-15T14:50:00.710Z,32.70
2022-11-15T14:52:35.449Z,30.40
2022-11-15T14:55:18.052Z,30.40
2022-11-15T14:57:46.726Z,34.00
2022-11-15T15:00:15.716Z,32.50
2022-11-15T15:02:46.576Z,31.70
2022-11-15T15:05:25.111Z,34.40
2022-11-15T15:07:56.829Z,34.80
2022-11-15T15:10:43.621Z,35.50
2022-11-15T15:13:24.879Z,33.00
2022-11-15T15:15:53.444Z,34.50
2022-11-15T15:18:21.803Z,35.50
2022-11-15T15:20:58.609Z,34.20
2022-11-15T15:23:30.335Z,34.50
2022-11-15T15:25:59.397Z,35.80
2022-11-15T15:28:34.028Z,39.50
2022-11-15T15:31:03.916Z,37.00
2022-11-15T15:33:33.602Z,39.20
2022-11-15T15:38:30.806Z,34.90
2022-11-15T15:41:00.777Z,36.20
2022-11-15T15:45:57.380Z,40.40
2022-11-15T15:48:25.916Z,39.30
2022-11-15T15:50:54.283Z,39.00
2022-11-15T15:53:22.655Z,37.70
2022-11-15T15:55:50.984Z,35.20
2022-11-15T15:58:19.344Z,38.70
2022-11-15T16:00:47.834Z,35.80
2022-11-15T16:03:16.387Z,36.50
2022-11-15T16:05:45.169Z,41.50
2022-11-15T16:08:25.086Z,37.90
2022-11-15T16:10:53.647Z,34.90
2022-11-15T16:13:21.993Z,38.10
2022-11-15T16:15:54.715Z,37.00
2022-11-15T16:18:23.032Z,35.90
2022-11-15T16:20:53.237Z,36.50
2022-11-15T16:23:22.867Z,37.60
2022-11-15T16:28:32.612Z,35.60
2022-11-15T16:31:13.044Z,37.00
2022-11-15T16:33:41.495Z,37.40
2022-11-15T16:36:31.260Z,37.10
2022-11-15T16:39:00.945Z,39.20
2022-11-15T16:43:57.685Z,34.90
2022-11-15T16:46:28.483Z,34.90
2022-11-15T16:48:57.734Z,39.20
2022-11-15T16:51:26.237Z,36.40
2022-11-15T16:53:54.575Z,39.50
2022-11-15T16:56:31.065Z,42.00
2022-11-15T16:59:01.414Z,37.60
2022-11-15T17:01:33.649Z,37.00
2022-11-15T17:04:13.169Z,37.50
2022-11-15T17:09:21.291Z,34.00
2022-11-15T17:11:49.760Z,37.00
2022-11-15T17:14:18.732Z,37.60
2022-11-15T17:16:47.066Z,36.50
2022-11-15T17:19:21.124Z,32.80
2022-11-15T17:21:49.857Z,37.80
2022-11-15T17:24:18.282Z,34.50
2022-11-15T17:26:48.708Z,37.40
2022-11-15T17:29:17.077Z,37.20
2022-11-15T17:31:45.428Z,31.80
2022-11-15T17:34:13.780Z,37.40
2022-11-15T17:36:42.205Z,33.30
2022-11-15T17:39:11.469Z,34.10
2022-11-15T17:41:40.864Z,28.80
2022-11-15T17:44:09.180Z,31.80
2022-11-15T17:46:37.620Z,31.90
2022-11-15T17:49:06.063Z,31.50
2022-11-15T17:51:34.508Z,32.40
2022-11-15T17:54:02.873Z,30.40
2022-11-15T17:56:31.761Z,32.00
2022-11-15T17:59:00.953Z,32.40
2022-11-15T18:01:32.075Z,29.10
2022-11-15T18:04:02.633Z,34.30
2022-11-15T18:06:34.010Z,29.40
2022-11-15T18:09:05.239Z,25.90
2022-11-15T18:11:40.200Z,27.60
2022-11-15T18:14:13.742Z,31.00
2022-11-15T18:16:42.867Z,30.10
2022-11-15T18:19:13.893Z,34.30
2022-11-15T18:21:57.025Z,28.20
2022-11-15T18:24:32.271Z,30.40
2022-11-15T18:27:03.532Z,30.00
2022-11-15T18:29:34.769Z,32.30
2022-11-15T18:32:06.625Z,29.90
2022-11-15T18:34:34.956Z,29.80
2022-11-15T18:37:03.668Z,32.10
2022-11-15T18:39:32.169Z,28.50
2022-11-15T18:42:00.956Z,32.40
2022-11-15T18:44:30.759Z,31.10
2022-11-15T18:46:59.435Z,29.00
2022-11-15T18:49:28.138Z,30.30
2022-11-15T18:51:57.334Z,32.00
2022-11-15T18:54:31.064Z,30.50
2022-11-15T18:57:00.442Z,30.70
2022-11-15T18:59:29.843Z,27.70
2022-11-15T19:01:58.178Z,28.00
2022-11-15T19:04:26.804Z,29.90
2022-11-15T19:06:55.421Z,26.30
2022-11-15T19:09:27.449Z,31.50
2022-11-15T19:11:56.220Z,27.80
2022-11-15T19:14:27.859Z,28.50
2022-11-15T19:16:56.332Z,27.30
2022-11-15T19:19:28.555Z,29.00
2022-11-15T19:21:57.792Z,26.30
2022-11-15T19:24:27.511Z,29.70
2022-11-15T19:26:56.115Z,26.10
2022-11-15T19:29:24.622Z,25.70
2022-11-15T19:31:53.097Z,26.30
2022-11-15T19:34:21.476Z,22.10
2022-11-15T19:36:49.860Z,20.70
2022-11-15T19:39:18.764Z,19.30
2022-11-15T19:41:47.240Z,21.30
2022-11-15T19:44:16.018Z,20.50
2022-11-15T19:46:44.619Z,24.20
2022-11-15T19:49:13.140Z,24.50
2022-11-15T19:51:47.499Z,25.90
2022-11-15T19:54:17.517Z,23.30
2022-11-15T19:56:45.936Z,23.10
2022-11-15T19:59:14.632Z,26.00
2022-11-15T20:01:43.244Z,25.50
2022-11-15T20:04:11.576Z,26.00
2022-11-15T20:06:42.621Z,23.30
2022-11-15T20:09:15.705Z,22.10
2022-11-15T20:11:45.092Z,28.20
2022-11-15T20:14:14.150Z,26.70
2022-11-15T20:16:42.936Z,28.00
2022-11-15T20:19:12.832Z,30.50
2022-11-15T20:21:42.616Z,30.20
2022-11-15T20:24:11.248Z,26.20
2022-11-15T20:26:40.038Z,26.40
2022-11-15T20:29:10.258Z,24.90
2022-11-15T20:31:38.841Z,28.50
2022-11-15T20:34:07.555Z,28.10
2022-11-15T20:36:36.024Z,30.60
2022-11-15T20:39:04.483Z,26.00
2022-11-15T20:41:32.986Z,28.50
2022-11-15T20:44:03.332Z,30.70
2022-11-15T20:46:31.791Z,25.40
2022-11-15T20:49:00.475Z,25.60
2022-11-15T20:51:28.958Z,25.30
2022-11-15T20:53:57.417Z,24.60
2022-11-15T20:56:25.831Z,23.70
2022-11-15T20:58:54.982Z,27.20
2022-11-15T21:01:24.989Z,24.60
2022-11-15T21:03:56.510Z,24.70
2022-11-15T21:06:26.649Z,24.80
2022-11-15T21:09:14.557Z,27.00
2022-11-15T21:12:01.326Z,25.10
2022-11-15T21:14:30.237Z,22.50
2022-11-15T21:16:58.808Z,26.10
2022-11-15T21:19:34.028Z,26.00
2022-11-15T21:22:06.435Z,23.20
2022-11-15T21:27:03.843Z,26.20
2022-11-15T21:29:38.959Z,25.70
2022-11-15T21:32:09.316Z,25.50
2022-11-15T21:34:38.339Z,24.60
2022-11-15T21:37:07.497Z,23.70
2022-11-15T21:39:37.061Z,24.80
2022-11-15T21:42:05.645Z,26.80
2022-11-15T21:44:34.021Z,26.20
2022-11-15T21:47:02.507Z,25.80
2022-11-15T21:49:31.290Z,25.60
2022-11-15T21:51:59.647Z,29.00
2022-11-15T21:54:28.154Z,29.70
2022-11-15T21:56:56.735Z,30.70
2022-11-15T21:59:25.295Z,29.40
2022-11-15T22:02:12.273Z,26.90
2022-11-15T22:04:40.692Z,34.30
2022-11-15T22:07:09.158Z,34.00
2022-11-15T22:09:37.744Z,33.80
2022-11-15T22:12:06.254Z,35.20
2022-11-15T22:14:34.734Z,34.80
2022-11-15T22:17:03.386Z,36.00
2022-11-15T22:19:31.802Z,34.20
2022-11-15T22:22:00.366Z,38.30
2022-11-15T22:24:28.849Z,34.40
2022-11-15T22:26:57.228Z,33.20
2022-11-15T22:29:25.722Z,38.50
2022-11-15T22:31:54.182Z,37.50
2022-11-15T22:34:22.685Z,41.90
2022-11-15T22:37:19.266Z,38.30
2022-11-15T22:39:42.154Z,38.40
2022-11-15T22:42:10.560Z,41.10
2022-11-15T22:44:39.137Z,36.10
2022-11-15T22:47:07.537Z,35.60
2022-11-15T22:49:36.080Z,40.20
2022-11-15T22:52:04.736Z,36.00
2022-11-15T22:54:33.779Z,36.80
2022-11-15T22:57:04.243Z,40.00
2022-11-15T22:59:32.684Z,38.50
2022-11-15T23:02:01.164Z,37.20
2022-11-15T23:04:30.302Z,38.00
2022-11-15T23:06:58.758Z,40.20
2022-11-15T23:09:27.408Z,39.70
2022-11-15T23:12:14.423Z,42.70
2022-11-15T23:14:42.817Z,38.40
2022-11-15T23:17:11.383Z,41.20
2022-11-15T23:19:40.680Z,41.40
2022-11-15T23:22:28.023Z,37.70
2022-11-15T23:24:56.606Z,40.80
2022-11-15T23:27:25.983Z,40.70
2022-11-15T23:30:13.433Z,41.80
2022-11-15T23:33:00.430Z,46.00
2022-11-15T23:35:28.828Z,43.10
2022-11-15T23:37:57.309Z,46.50
2022-11-15T23:40:25.777Z,42.40
2022-11-15T23:42:54.171Z,46.80
2022-11-15T23:45:22.729Z,39.10
2022-11-15T23:47:51.209Z,39.50
2022-11-15T23:50:19.793Z,44.80
2022-11-15T23:52:48.398Z,47.50
2022-11-15T23:55:18.516Z,40.60
2022-11-15T23:57:46.960Z,42.50
